createdAt,value
2023-10-17T10:07:57.673Z,17.30
2023-10-17T10:10:44.502Z,17.40
2023-10-17T10:13:32.677Z,17.85
2023-10-17T10:16:19.683Z,17.02
2023-10-17T10:19:00.019Z,17.35
2023-10-17T10:22:06.647Z,17.90
2023-10-17T10:24:48.445Z,17.50
2023-10-17T10:27:35.754Z,17.30
2023-10-17T10:30:51.691Z,17.30
2023-10-17T10:33:33.129Z,17.70
2023-10-17T10:36:19.722Z,17.63
2023-10-17T10:39:19.743Z,17.77
2023-10-17T10:42:14.697Z,17.27
2023-10-17T10:44:54.998Z,18.73
2023-10-17T10:47:41.710Z,18.77
2023-10-17T10:50:22.006Z,17.30
2023-10-17T10:53:08.669Z,17.77
2023-10-17T10:55:59.582Z,16.83
2023-10-17T10:58:48.668Z,17.02
2023-10-17T11:15:34.374Z,17.42
2023-10-17T11:18:16.422Z,17.80
2023-10-17T11:21:13.252Z,17.60
2023-10-17T11:24:07.549Z,17.98
2023-10-17T11:26:50.218Z,17.63
2023-10-17T11:29:37.352Z,17.85
2023-10-17T11:32:19.312Z,17.83
2023-10-17T11:35:07.201Z,17.50
2023-10-17T11:38:08.144Z,17.75
2023-10-17T11:40:49.844Z,17.27
2023-10-17T11:43:42.210Z,17.80
2023-10-17T11:46:37.394Z,17.83
2023-10-17T11:49:28.512Z,17.65
2023-10-17T11:52:17.245Z,17.40
2023-10-17T11:55:14.873Z,17.48
2023-10-17T11:58:02.222Z,16.75
2023-10-17T12:00:42.768Z,17.30
2023-10-17T12:03:29.310Z,17.20
2023-10-17T12:06:09.296Z,16.52
2023-10-17T12:08:56.268Z,16.95
2023-10-17T12:11:37.515Z,17.50
2023-10-17T12:14:28.351Z,17.13
2023-10-17T12:17:09.660Z,16.70
2023-10-17T12:19:56.169Z,16.05
2023-10-17T12:22:36.254Z,16.60
2023-10-17T12:25:24.243Z,16.05
2023-10-17T12:28:11.173Z,16.67
2023-10-17T12:30:58.375Z,18.52
2023-10-17T12:33:46.369Z,15.98
2023-10-17T12:36:33.373Z,16.27
2023-10-17T12:39:16.205Z,16.42
2023-10-17T12:41:56.711Z,17.10
2023-10-17T12:44:44.128Z,17.15
2023-10-17T12:47:31.251Z,16.60
2023-10-17T12:50:13.090Z,16.60
2023-10-17T12:53:01.233Z,16.10
2023-10-17T12:55:45.716Z,17.00
2023-10-17T12:58:32.152Z,16.00
2023-10-17T13:01:20.208Z,16.55
2023-10-17T13:04:07.270Z,17.00
2023-10-17T13:06:54.291Z,17.58
2023-10-17T13:09:49.287Z,17.10
2023-10-17T13:12:36.152Z,17.00
2023-10-17T13:15:19.470Z,16.65
2023-10-17T13:18:12.199Z,17.15
2023-10-17T13:21:06.475Z,16.73
2023-10-17T13:24:19.144Z,17.23
2023-10-17T13:27:19.543Z,18.13
2023-10-17T13:30:00.632Z,16.63
2023-10-17T13:32:48.156Z,16.48
2023-10-17T13:35:30.001Z,17.45
2023-10-17T13:38:17.113Z,18.00
2023-10-17T13:41:07.808Z,17.45
2023-10-17T13:43:56.122Z,17.20
2023-10-17T13:46:37.806Z,17.13
2023-10-17T13:49:26.465Z,16.38
2023-10-17T13:52:10.349Z,16.42
2023-10-17T13:54:57.198Z,16.92
2023-10-17T13:57:37.539Z,17.45
2023-10-17T14:00:29.183Z,16.42
2023-10-17T14:03:23.225Z,17.38
2023-10-17T14:06:14.146Z,17.00
2023-10-17T14:09:00.587Z,17.30
2023-10-17T14:11:47.094Z,16.75
2023-10-17T14:14:39.067Z,16.00
2023-10-17T14:17:22.200Z,17.77
2023-10-17T14:20:25.090Z,16.95
2023-10-17T14:23:20.976Z,16.92
2023-10-17T14:26:14.093Z,17.63
2023-10-17T14:29:01.019Z,17.15
2023-10-17T14:31:41.429Z,17.00
2023-10-17T14:34:28.048Z,17.02
2023-10-17T14:37:08.993Z,16.95
2023-10-17T14:39:57.051Z,17.02
2023-10-17T14:42:37.814Z,16.77
2023-10-17T14:45:25.066Z,17.23
2023-10-17T14:48:13.006Z,16.60
2023-10-17T14:51:00.155Z,16.95
2023-10-17T14:53:51.716Z,17.15
2023-10-17T14:56:36.026Z,16.60
2023-10-17T14:59:23.982Z,17.10
2023-10-17T15:02:04.031Z,16.60
2023-10-17T15:04:52.059Z,16.73
2023-10-17T15:07:32.138Z,17.40
2023-10-17T15:10:27.266Z,16.77
2023-10-17T15:13:14.111Z,16.58
2023-10-17T15:15:55.192Z,16.10
2023-10-17T15:18:35.737Z,16.80
2023-10-17T15:21:24.158Z,16.95
2023-10-17T15:24:04.635Z,16.77
2023-10-17T15:26:50.969Z,16.73
2023-10-17T15:29:37.878Z,17.38
2023-10-17T15:32:24.983Z,16.67
2023-10-17T15:35:20.956Z,16.85
2023-10-17T15:38:01.048Z,16.60
2023-10-17T15:40:48.014Z,16.63
2023-10-17T15:43:31.135Z,16.70
2023-10-17T15:46:22.956Z,17.38
2023-10-17T15:49:09.931Z,16.70
2023-10-17T15:51:50.934Z,16.23
2023-10-17T15:54:37.999Z,16.95
2023-10-17T15:57:24.913Z,15.90
2023-10-17T16:00:17.942Z,15.93
2023-10-17T16:03:05.320Z,16.42
2023-10-17T16:05:45.080Z,16.15
2023-10-17T16:08:31.867Z,15.73
2023-10-17T16:11:21.230Z,15.88
2023-10-17T16:14:00.882Z,16.40
2023-10-17T16:16:41.368Z,16.02
2023-10-17T16:19:28.634Z,16.23
2023-10-17T16:22:16.035Z,15.73
2023-10-17T16:24:55.991Z,16.33
2023-10-17T16:27:51.994Z,16.13
2023-10-17T16:30:32.564Z,16.40
2023-10-17T16:33:22.874Z,16.08
2023-10-17T16:36:03.661Z,15.93
2023-10-17T16:38:53.877Z,16.75
2023-10-17T16:41:41.034Z,16.15
2023-10-17T16:44:21.086Z,16.25
2023-10-17T16:47:09.040Z,16.50
2023-10-17T16:49:48.991Z,16.65
2023-10-17T16:52:36.021Z,15.98
2023-10-17T16:55:22.916Z,15.90
2023-10-17T16:58:04.187Z,15.95
2023-10-17T17:00:50.836Z,15.75
2023-10-17T17:03:38.101Z,16.08
2023-10-17T17:06:17.824Z,15.77
2023-10-17T17:09:07.117Z,15.98
2023-10-17T17:11:57.889Z,16.75
2023-10-17T17:14:37.911Z,15.85
2023-10-17T17:17:18.615Z,15.80
2023-10-17T17:20:05.766Z,16.73
2023-10-17T17:22:46.551Z,15.48
2023-10-17T17:25:34.838Z,15.20
2023-10-17T17:28:15.997Z,15.60
2023-10-17T17:31:03.092Z,15.93
2023-10-17T17:33:43.817Z,15.93
2023-10-17T17:36:30.859Z,15.82
2023-10-17T17:39:17.861Z,15.90
2023-10-17T17:41:58.860Z,16.63
2023-10-17T17:44:46.796Z,15.90
2023-10-17T17:47:30.946Z,15.98
2023-10-17T17:50:24.779Z,16.52
2023-10-17T17:53:12.784Z,16.10
2023-10-17T17:55:57.342Z,16.30
2023-10-17T17:58:43.813Z,15.55
2023-10-17T18:01:23.983Z,15.77
2023-10-17T18:04:27.488Z,15.23
2023-10-17T18:07:10.934Z,15.57
2023-10-17T18:09:57.787Z,15.82
2023-10-17T18:12:51.938Z,16.23
2023-10-17T18:15:39.819Z,16.65
2023-10-17T18:18:19.916Z,15.40
2023-10-17T18:21:17.791Z,16.60
2023-10-17T18:24:05.716Z,15.55
2023-10-17T18:26:52.881Z,15.65
2023-10-17T18:29:32.792Z,16.10
2023-10-17T18:32:15.292Z,15.52
2023-10-17T18:35:02.775Z,15.27
2023-10-17T18:37:49.762Z,15.10
2023-10-17T18:40:30.822Z,15.43
2023-10-17T18:43:18.701Z,15.10
2023-10-17T18:45:58.995Z,15.95
2023-10-17T18:48:46.841Z,15.40
2023-10-17T18:51:26.810Z,14.90
2023-10-17T18:54:13.707Z,15.15
2023-10-17T18:56:54.258Z,14.73
2023-10-17T18:59:40.655Z,14.68
2023-10-17T19:02:20.858Z,14.45
2023-10-17T19:05:07.733Z,15.63
2023-10-17T19:07:48.006Z,15.57
2023-10-17T19:10:41.658Z,15.73
2023-10-17T19:13:22.191Z,15.68
2023-10-17T19:16:08.757Z,15.73
2023-10-17T19:18:49.403Z,15.73
2023-10-17T19:21:36.637Z,15.82
2023-10-17T19:24:17.123Z,15.82
2023-10-17T19:27:03.729Z,15.80
2023-10-17T19:29:44.286Z,15.50
2023-10-17T19:32:30.764Z,15.50
2023-10-17T19:35:17.937Z,17.05
2023-10-17T19:37:57.718Z,15.88
2023-10-17T19:40:44.911Z,16.20
2023-10-17T19:43:24.678Z,15.95
2023-10-17T19:46:05.115Z,16.42
2023-10-17T19:48:51.685Z,16.05
2023-10-17T19:51:32.361Z,15.57
2023-10-17T19:54:19.644Z,15.85
2023-10-17T19:57:06.670Z,15.75
2023-10-17T19:59:47.340Z,15.82
2023-10-17T20:02:36.722Z,15.90
2023-10-17T20:05:23.824Z,15.75
2023-10-17T20:08:04.647Z,15.38
2023-10-17T20:10:58.685Z,15.52
2023-10-17T20:13:40.616Z,15.00
2023-10-17T20:16:27.659Z,15.57
2023-10-17T20:19:14.948Z,15.80
2023-10-17T20:21:54.729Z,15.80
2023-10-17T20:24:35.262Z,15.32
2023-10-17T20:27:21.623Z,15.40
2023-10-17T20:30:03.422Z,15.18
2023-10-17T20:32:50.578Z,15.40
2023-10-17T20:35:42.610Z,14.95
2023-10-17T20:38:23.298Z,15.65
2023-10-17T20:41:11.623Z,15.32
2023-10-17T20:43:58.645Z,15.30
2023-10-17T20:46:46.652Z,15.50
2023-10-17T20:49:29.029Z,15.07
2023-10-17T20:52:19.563Z,15.20
2023-10-17T20:55:06.638Z,15.43
2023-10-17T20:57:54.302Z,15.00
2023-10-17T21:00:35.693Z,15.60
2023-10-17T21:03:22.824Z,16.13
2023-10-17T21:06:02.568Z,15.60
2023-10-17T21:08:50.159Z,16.20
2023-10-17T21:11:36.569Z,15.10
2023-10-17T21:14:24.594Z,15.60
2023-10-17T21:17:08.098Z,15.65
2023-10-17T21:19:54.567Z,15.60
2023-10-17T21:22:34.987Z,15.15
2023-10-17T21:25:21.608Z,15.25
2023-10-17T21:28:03.268Z,15.60
2023-10-17T21:30:50.626Z,15.50
2023-10-17T21:33:39.602Z,15.45
2023-10-17T21:36:26.589Z,15.90
2023-10-17T21:39:17.061Z,15.90
2023-10-17T21:41:57.581Z,15.52
2023-10-17T21:44:44.721Z,15.70
2023-10-17T21:47:24.624Z,15.80
2023-10-17T21:50:11.546Z,15.50
2023-10-17T21:52:51.661Z,16.10
2023-10-17T21:55:38.621Z,16.23
2023-10-17T21:58:18.623Z,15.85
2023-10-17T22:01:17.626Z,16.30
2023-10-17T22:03:57.656Z,16.05
2023-10-17T22:06:45.537Z,15.63
2023-10-17T22:09:36.514Z,15.90
2023-10-17T22:12:31.584Z,15.68
2023-10-17T22:15:15.099Z,16.05
2023-10-17T22:18:01.586Z,16.20
2023-10-17T22:20:41.906Z,16.23
2023-10-17T22:23:29.560Z,16.25
2023-10-17T22:26:22.346Z,16.30
2023-10-17T22:29:02.645Z,15.95
2023-10-17T22:31:49.594Z,16.10
2023-10-17T22:34:29.601Z,16.23
2023-10-17T22:37:17.550Z,16.65
2023-10-17T22:39:57.585Z,16.48
2023-10-17T22:42:46.644Z,16.33
2023-10-17T22:45:26.590Z,16.17
2023-10-17T22:48:13.442Z,16.60
2023-10-17T22:50:53.559Z,16.30
2023-10-17T22:53:44.398Z,16.38
2023-10-17T22:56:31.514Z,16.65
2023-10-17T22:59:11.830Z,16.48
2023-10-17T23:01:58.543Z,16.58
